Time;durP1;ratioP1;P1;durP2;ratioP2;P2;SDS_P1;SDS_P2;PMS_P1;PMS_P2;Temp;Humidity;BMP_temperature;BMP_pressure;BME280_temperature;BME280_humidity;BME280_pressure;Samples;Min_cycle;Max_cycle;Signal;HPM_P1;HPM_P2
2022/08/11 00:01:24;;;;;;;3.85;2.65;;;19.00;96.00;;;;;;4248718;27;20039;-82
2022/08/11 00:03:25;;;;;;;5.35;2.95;;;19.00;96.10;;;;;;4249026;27;20039;-83
2022/08/11 00:05:30;;;;;;;7.63;2.83;;;18.90;96.10;;;;;;4229750;28;20086;-83
2022/08/11 00:07:31;;;;;;;4.95;2.75;;;18.90;96.30;;;;;;4248613;27;20118;-83
2022/08/11 00:09:36;;;;;;;5.95;2.78;;;18.90;96.30;;;;;;4230043;28;20040;-83
2022/08/11 00:11:47;;;;;;;6.32;2.60;;;18.90;96.40;;;;;;4248499;27;20043;-83
2022/08/11 00:13:48;;;;;;;4.35;2.75;;;18.90;96.40;;;;;;4229827;28;20048;-83
2022/08/11 00:15:50;;;;;;;5.40;2.80;;;18.80;96.50;;;;;;4248578;27;20054;-83
2022/08/11 00:17:58;;;;;;;5.53;3.10;;;18.80;96.60;;;;;;4249779;27;20175;-83
2022/08/11 00:20:06;;;;;;;8.13;3.33;;;18.80;96.70;;;;;;4265519;27;20038;-82
2022/08/11 00:22:08;;;;;;;5.10;3.10;;;18.70;96.70;;;;;;4265365;27;20414;-82
2022/08/11 00:24:10;;;;;;;5.45;3.15;;;18.70;96.70;;;;;;4246500;27;20043;-82
2022/08/11 00:26:13;;;;;;;4.13;2.88;;;18.70;96.80;;;;;;4229963;28;20051;-82
2022/08/11 00:28:31;;;;;;;6.85;3.13;;;18.70;96.90;;;;;;4246980;27;20051;-82
2022/08/11 00:30:38;;;;;;;7.45;3.08;;;18.60;97.20;;;;;;4246905;27;20086;-82
2022/08/11 00:32:52;;;;;;;7.30;3.47;;;18.60;97.00;;;;;;4264997;27;20035;-82
2022/08/11 00:34:53;;;;;;;3.95;3.17;;;18.50;97.10;;;;;;4265002;27;20046;-82
2022/08/11 00:37:08;;;;;;;4.60;2.65;;;18.50;97.20;;;;;;4229107;28;20062;-82
2022/08/11 00:39:09;;;;;;;5.03;2.80;;;18.50;97.70;;;;;;4241529;27;20039;-82
2022/08/11 00:41:32;;;;;;;8.10;3.10;;;18.50;97.40;;;;;;4264975;27;20133;-82
2022/08/11 00:43:55;;;;;;;6.53;3.30;;;18.50;97.90;;;;;;4265028;27;20050;-82
2022/08/11 00:46:17;;;;;;;5.55;3.30;;;18.50;97.90;;;;;;4265083;27;20042;-82
2022/08/11 00:48:32;;;;;;;10.52;3.22;;;18.40;97.90;;;;;;4246737;27;20058;-82
2022/08/11 00:51:11;;;;;;;5.90;3.28;;;18.40;97.90;;;;;;4264869;27;20038;-82
2022/08/11 00:53:34;;;;;;;3.92;3.13;;;18.40;98.10;;;;;;4247278;27;20054;-82
2022/08/11 00:55:55;;;;;;;4.43;2.85;;;18.30;97.90;;;;;;4265004;27;20525;-82
2022/08/11 00:58:14;;;;;;;8.88;3.33;;;18.30;98.20;;;;;;4247187;27;20043;-83
2022/08/11 01:00:16;;;;;;;;;;;18.30;97.90;;;;;;4247246;27;20054;-83
2022/08/11 01:02:22;;;;;;;4.80;3.10;;;18.30;98.80;;;;;;4246837;27;19923;-82
2022/08/11 01:04:41;;;;;;;4.00;2.85;;;18.20;97.90;;;;;;4259567;27;20501;-83
2022/08/11 01:07:06;;;;;;;5.50;3.53;;;18.20;97.90;;;;;;4248065;27;20168;-83
2022/08/11 01:09:19;;;;;;;4.32;2.95;;;18.20;98.20;;;;;;4247918;27;20089;-83
2022/08/11 01:11:39;;;;;;;5.40;3.08;;;18.20;98.00;;;;;;4248186;27;20053;-83
2022/08/11 01:13:51;;;;;;;6.70;2.95;;;18.20;98.10;;;;;;4229295;28;20136;-83
2022/08/11 01:16:25;;;;;;;6.35;3.10;;;18.10;98.10;;;;;;4213153;28;20052;-83
2022/08/11 01:18:54;;;;;;;4.35;2.75;;;18.10;98.30;;;;;;4229473;28;20043;-82
2022/08/11 01:21:01;;;;;;;6.28;3.47;;;18.00;98.50;;;;;;4247898;27;20402;-83
2022/08/11 01:23:40;;;;;;;5.00;3.00;;;18.00;98.20;;;;;;4229635;28;20415;-83
2022/08/11 01:26:00;;;;;;;3.72;2.90;;;18.00;98.60;;;;;;4230529;27;20055;-83
2022/08/11 01:28:22;;;;;;;5.15;3.22;;;17.90;98.30;;;;;;4229714;28;20051;-83
2022/08/11 01:31:02;;;;;;;8.07;4.10;;;17.90;98.30;;;;;;4229596;28;20079;-83
2022/08/11 01:33:22;;;;;;;4.35;2.80;;;17.80;98.50;;;;;;4229671;28;20047;-82
2022/08/11 01:35:28;;;;;;;4.47;2.35;;;17.80;98.50;;;;;;4247237;27;20066;-82
2022/08/11 01:37:52;;;;;;;3.55;2.30;;;17.70;98.50;;;;;;4232827;28;20050;-82
2022/08/11 01:40:31;;;;;;;2.88;2.00;;;17.70;98.60;;;;;;4246487;27;20053;-82
2022/08/11 01:45:30;;;;;;;3.35;2.13;;;17.50;98.60;;;;;;4264769;27;20478;-81
2022/08/11 01:47:52;;;;;;;3.00;2.00;;;17.50;98.80;;;;;;4264172;27;20101;-82
2022/08/11 01:50:15;;;;;;;3.97;2.55;;;17.50;98.80;;;;;;4246709;28;20483;-82
2022/08/11 01:52:25;;;;;;;3.80;2.53;;;17.40;98.80;;;;;;4246360;28;20211;-83
2022/08/11 01:54:55;;;;;;;3.95;2.50;;;17.40;98.80;;;;;;4245815;28;20538;-82
2022/08/11 01:57:14;;;;;;;4.88;3.10;;;17.40;98.90;;;;;;4247865;28;20083;-82
2022/08/11 01:59:23;;;;;;;6.00;3.00;;;17.40;98.90;;;;;;4229219;28;20074;-82
2022/08/11 02:01:41;;;;;;;6.18;3.28;;;17.30;98.90;;;;;;4247875;28;20039;-82
2022/08/11 02:04:38;;;;;;;4.78;2.80;;;17.30;99.00;;;;;;4229596;28;20051;-83
2022/08/11 02:06:57;;;;;;;5.10;3.20;;;17.20;99.10;;;;;;4179065;28;20044;-82
2022/08/11 02:09:06;;;;;;;6.57;3.85;;;17.20;99.10;;;;;;4249487;27;20074;-82
2022/08/11 02:11:32;;;;;;;5.78;3.05;;;17.20;98.90;;;;;;4266092;27;20095;-82
2022/08/11 02:13:47;;;;;;;7.90;2.70;;;17.20;99.20;;;;;;4268356;27;20551;-82
2022/08/11 02:16:03;;;;;;;4.15;2.72;;;17.10;99.00;;;;;;4249548;27;20126;-82
2022/08/11 02:18:12;;;;;;;5.28;2.80;;;17.10;99.00;;;;;;4265357;27;20126;-82
2022/08/11 02:25:10;;;;;;;5.43;3.15;;;17.00;99.40;;;;;;4250543;27;19920;-82
2022/08/11 02:27:18;;;;;;;6.68;3.10;;;16.90;98.90;;;;;;4232674;28;20058;-83
2022/08/11 02:29:24;;;;;;;7.10;3.38;;;16.90;99.00;;;;;;4251028;27;20047;-83
2022/08/11 02:34:24;;;;;;;8.52;3.25;;;16.90;99.20;;;;;;4250906;27;20043;-83
2022/08/11 02:36:51;;;;;;;4.57;3.30;;;16.90;99.50;;;;;;4228427;27;20115;-81
2022/08/11 02:39:01;;;;;;;6.57;3.63;;;16.90;99.40;;;;;;4232272;28;20047;-82
2022/08/11 02:43:55;;;;;;;4.20;2.65;;;16.70;99.40;;;;;;4248761;27;20051;-83
2022/08/11 02:46:27;;;;;;;5.60;3.63;;;16.70;99.50;;;;;;4250536;27;20081;-82
2022/08/11 02:51:54;;;;;;;5.13;3.00;;;16.60;99.90;;;;;;4267045;27;20498;-83
2022/08/11 02:54:10;;;;;;;4.90;3.35;;;16.50;99.90;;;;;;4249880;27;20054;-82
2022/08/11 02:56:25;;;;;;;8.80;3.70;;;16.50;99.90;;;;;;4267216;27;20085;-82
2022/08/11 02:58:39;;;;;;;5.57;3.80;;;16.50;99.90;;;;;;4243831;27;20051;-82
2022/08/11 03:01:04;;;;;;;3.75;2.78;;;16.50;99.90;;;;;;4232294;28;20046;-83
2022/08/11 03:03:28;;;;;;;4.32;3.42;;;16.50;99.90;;;;;;4214564;28;20048;-82
2022/08/11 03:05:37;;;;;;;3.47;2.92;;;16.50;99.90;;;;;;4232040;28;20043;-82
2022/08/11 03:07:47;;;;;;;;;;;16.50;99.90;;;;;;4232219;28;20046;-83
2022/08/11 03:10:09;;;;;;;3.53;2.47;;;16.50;99.90;;;;;;4250168;27;20009;-83
2022/08/11 03:17:21;;;;;;;3.40;2.15;;;16.50;99.90;;;;;;4249995;27;20047;-82
2022/08/11 03:19:59;;;;;;;4.18;2.10;;;16.40;99.80;;;;;;4231634;28;20087;-82
2022/08/11 03:22:28;;;;;;;2.53;1.93;;;16.40;99.90;;;;;;4231408;28;20122;-83
2022/08/11 03:24:47;;;;;;;1.85;1.40;;;16.40;99.90;;;;;;4231875;28;20062;-82
2022/08/11 03:26:53;;;;;;;3.67;1.50;;;16.40;99.90;;;;;;4231689;28;20055;-82
2022/08/11 03:29:21;;;;;;;2.78;1.80;;;16.30;99.90;;;;;;4249728;27;20047;-82
2022/08/11 03:31:39;;;;;;;2.07;1.60;;;16.30;99.90;;;;;;4231282;28;20054;-83
2022/08/11 03:34:02;;;;;;;1.58;1.20;;;16.30;99.90;;;;;;4231050;27;20289;-82
2022/08/11 03:36:13;;;;;;;2.63;1.55;;;16.30;99.90;;;;;;4231491;28;20507;-83
2022/08/11 03:38:15;;;;;;;2.72;1.52;;;16.20;99.90;;;;;;4249928;27;20070;-82
2022/08/11 03:43:21;;;;;;;3.08;1.27;;;16.20;99.90;;;;;;4230948;28;20047;-83
2022/08/11 03:45:29;;;;;;;2.22;1.20;;;16.20;99.90;;;;;;4249286;27;20583;-83
2022/08/11 03:47:52;;;;;;;2.47;1.00;;;16.10;99.90;;;;;;4249465;27;20437;-82
2022/08/11 03:49:55;;;;;;;3.67;1.05;;;16.10;99.90;;;;;;4249558;27;20040;-82
2022/08/11 03:52:36;;;;;;;4.18;1.23;;;16.10;99.90;;;;;;4231184;28;20048;-83
2022/08/11 03:54:37;;;;;;;3.40;1.33;;;16.10;99.90;;;;;;4230410;28;20055;-83
2022/08/11 03:57:10;;;;;;;4.43;1.88;;;16.10;99.90;;;;;;4249075;27;20047;-83
2022/08/11 03:59:40;;;;;;;3.85;2.10;;;16.10;99.90;;;;;;4248740;27;20551;-83
2022/08/11 04:02:19;;;;;;;3.25;2.35;;;16.10;99.90;;;;;;4230740;28;20051;-83
2022/08/11 04:05:15;;;;;;;5.15;2.20;;;16.00;99.90;;;;;;4249119;27;20032;-83
2022/08/11 04:07:40;;;;;;;5.57;2.30;;;16.00;99.90;;;;;;4226341;28;20043;-83
2022/08/11 04:10:19;;;;;;;3.42;2.28;;;16.00;99.90;;;;;;4248790;27;20066;-83
2022/08/11 04:12:49;;;;;;;3.85;2.33;;;16.00;99.90;;;;;;4249267;27;20126;-83
2022/08/11 04:18:06;;;;;;;4.13;2.58;;;16.10;99.90;;;;;;4266272;27;20050;-82
2022/08/11 04:20:44;;;;;;;4.43;2.85;;;16.10;99.90;;;;;;4265607;27;20039;-82
2022/08/11 04:23:04;;;;;;;5.80;3.47;;;16.10;99.90;;;;;;4265986;27;20054;-82
2022/08/11 04:25:24;;;;;;;7.10;3.53;;;16.10;99.90;;;;;;4249286;27;20543;-82
2022/08/11 04:27:53;;;;;;;6.65;4.00;;;16.20;99.90;;;;;;4249137;27;20493;-82
2022/08/11 04:30:02;;;;;;;;;;;16.20;99.90;;;;;;4231326;28;20040;-82
2022/08/11 04:32:29;;;;;;;8.15;3.78;;;16.20;99.90;;;;;;4229414;28;19919;-82
2022/08/11 04:34:57;;;;;;;4.85;3.08;;;16.20;99.90;;;;;;4248514;27;20454;-82
2022/08/11 04:39:44;;;;;;;7.68;4.50;;;16.20;99.90;;;;;;4230152;28;20060;-82
2022/08/11 04:44:56;;;;;;;7.72;4.93;;;16.20;99.90;;;;;;4262119;27;20058;-82
2022/08/11 05:01:39;;;;;;;8.60;5.55;;;16.30;99.90;;;;;;4264994;27;20051;-83
2022/08/11 05:01:40;;;;;;;8.52;3.97;;;16.30;99.90;;;;;;4247974;27;20051;-82
2022/08/11 05:05:29;;;;;;;7.72;4.60;;;16.20;99.90;;;;;;4247920;27;20047;-81
2022/08/11 05:07:03;;;;;;;8.23;3.78;;;16.30;99.90;;;;;;4229292;28;20082;-82
2022/08/11 05:09:12;;;;;;;7.35;4.57;;;16.30;99.90;;;;;;4233121;27;20078;-81
2022/08/11 05:11:32;;;;;;;;;;;16.30;99.90;;;;;;4247766;27;20058;-82
2022/08/11 05:35:42;;;;;;;6.57;3.88;;;16.80;99.90;;;;;;4252154;27;20507;-82
2022/08/11 05:57:01;;;;;;;10.32;5.10;;;17.60;99.90;;;;;;4265326;27;20115;-83
2022/08/11 05:59:02;;;;;;;8.55;4.90;;;17.80;99.90;;;;;;4246240;28;20039;-82
2022/08/11 06:01:04;;;;;;;7.35;4.60;;;17.80;99.90;;;;;;4246882;28;20047;-82
2022/08/11 06:03:09;;;;;;;9.40;4.50;;;17.90;99.90;;;;;;4263992;27;20042;-82
2022/08/11 06:05:11;;;;;;;10.10;4.30;;;18.00;99.90;;;;;;4245958;28;20055;-82
2022/08/11 06:07:16;;;;;;;6.90;4.30;;;18.10;99.90;;;;;;4246892;28;20054;-83
2022/08/11 06:09:28;;;;;;;9.40;4.63;;;18.20;99.90;;;;;;4264800;27;20042;-82
2022/08/11 06:11:31;;;;;;;7.18;3.92;;;18.30;99.90;;;;;;4246453;28;20058;-82
2022/08/11 06:13:35;;;;;;;7.78;4.93;;;18.40;99.90;;;;;;4246430;28;20082;-82
2022/08/11 06:15:46;;;;;;;9.38;4.72;;;18.50;99.90;;;;;;4264703;27;20047;-83
2022/08/11 06:17:50;;;;;;;10.25;4.95;;;18.60;99.90;;;;;;4229820;28;20047;-83
2022/08/11 06:19:57;;;;;;;10.50;4.68;;;18.70;99.90;;;;;;4249975;27;20080;-83
2022/08/11 06:22:00;;;;;;;9.98;5.65;;;18.80;99.90;;;;;;4228937;28;20511;-83
2022/08/11 06:24:12;;;;;;;8.82;4.88;;;18.80;99.90;;;;;;4249561;28;20043;-81
2022/08/11 06:26:13;;;;;;;8.98;4.90;;;18.90;99.90;;;;;;4248526;28;20031;-83
2022/08/11 06:28:18;;;;;;;10.00;5.40;;;19.00;99.90;;;;;;4212365;28;20405;-82
2022/08/11 06:30:39;;;;;;;9.45;4.97;;;19.10;99.90;;;;;;4247385;28;20082;-83
2022/08/11 06:32:45;;;;;;;11.25;4.63;;;19.20;99.90;;;;;;4228831;28;20123;-82
2022/08/11 06:35:06;;;;;;;9.20;4.90;;;19.30;99.90;;;;;;4247542;28;20122;-82
2022/08/11 06:37:10;;;;;;;8.07;4.47;;;19.40;99.90;;;;;;4229044;28;20127;-83
2022/08/11 06:39:27;;;;;;;14.75;4.30;;;19.50;99.90;;;;;;4247605;28;20104;-83
2022/08/11 06:42:05;;;;;;;13.82;4.85;;;19.60;99.90;;;;;;4247558;28;20140;-82
2022/08/11 06:44:17;;;;;;;7.73;3.90;;;19.70;99.90;;;;;;4237395;27;20064;-82
2022/08/11 06:46:29;;;;;;;7.50;4.53;;;19.80;99.90;;;;;;4264590;27;20333;-82
2022/08/11 06:48:32;;;;;;;9.50;4.78;;;19.80;99.90;;;;;;4265077;27;20039;-82
2022/08/11 06:52:53;;;;;;;7.28;4.50;;;20.00;99.90;;;;;;4264802;27;20518;-82
2022/08/11 06:55:03;;;;;;;8.73;4.28;;;20.10;99.90;;;;;;4266385;27;20094;-82
2022/08/11 07:02:00;;;;;;;10.50;5.18;;;20.40;99.90;;;;;;4250804;27;20051;-82
2022/08/11 07:04:09;;;;;;;7.13;4.10;;;20.60;99.90;;;;;;4250434;27;20506;-82
2022/08/11 07:15:40;;;;;;;9.70;4.43;;;20.70;99.90;;;;;;4232221;28;20044;-82
2022/08/11 07:16:49;;;;;;;7.13;3.80;;;21.20;99.90;;;;;;4267160;27;20146;-82
2022/08/11 07:30:43;;;;;;;4.32;3.10;;;21.90;99.60;;;;;;4231939;28;20496;-82
2022/08/11 07:32:51;;;;;;;5.47;3.38;;;22.00;99.30;;;;;;4214803;28;20136;-82
2022/08/11 07:35:01;;;;;;;6.53;3.28;;;22.10;98.90;;;;;;4214989;28;20113;-82
2022/08/11 07:37:08;;;;;;;5.18;3.67;;;22.30;98.80;;;;;;4250648;27;20068;-82
2022/08/11 07:39:25;;;;;;;8.50;3.90;;;22.40;98.60;;;;;;4231200;28;20043;-82
2022/08/11 07:41:33;;;;;;;5.63;3.88;;;22.50;98.50;;;;;;4250271;27;20054;-82
2022/08/11 07:43:34;;;;;;;9.38;4.13;;;22.70;98.40;;;;;;4257939;27;20059;-82
2022/08/11 07:52:39;;;;;;;7.47;3.42;;;23.30;97.80;;;;;;4266966;27;20053;-82
2022/08/11 07:54:40;;;;;;;8.15;3.50;;;23.40;97.60;;;;;;4266950;27;20067;-83
2022/08/11 07:56:41;;;;;;;5.43;3.60;;;23.60;97.40;;;;;;4266394;27;20085;-82
2022/08/11 08:19:47;;;;;;;9.80;3.78;;;24.90;93.50;;;;;;4230358;28;20083;-83
2022/08/11 08:21:48;;;;;;;5.40;2.45;;;25.10;93.30;;;;;;4229974;28;20050;-82
2022/08/11 08:23:50;;;;;;;7.75;3.17;;;25.30;92.80;;;;;;4248263;27;20135;-83
2022/08/11 08:25:51;;;;;;;5.10;2.40;;;25.50;92.30;;;;;;4230753;28;20048;-83
2022/08/11 08:27:55;;;;;;;2.47;1.80;;;25.60;91.90;;;;;;4248861;27;20104;-83
2022/08/11 08:32:17;;;;;;;2.30;1.73;;;26.10;91.00;;;;;;4248661;27;20492;-83
2022/08/11 08:34:18;;;;;;;3.25;2.00;;;26.30;90.50;;;;;;4248660;27;20043;-82
2022/08/11 08:36:22;;;;;;;4.68;1.95;;;26.40;89.50;;;;;;4230664;28;20043;-82
2022/08/11 08:38:23;;;;;;;4.93;1.85;;;26.50;88.30;;;;;;4230401;28;20123;-83
2022/08/11 08:40:25;;;;;;;3.42;1.83;;;26.70;87.70;;;;;;4254370;27;20093;-83
2022/08/11 08:42:29;;;;;;;2.88;1.80;;;26.80;86.00;;;;;;4247358;27;20047;-83
2022/08/11 08:44:34;;;;;;;4.00;1.60;;;26.80;85.00;;;;;;4229461;28;20108;-83
2022/08/11 08:46:49;;;;;;;5.97;1.60;;;27.00;84.70;;;;;;4265568;27;20035;-83
2022/08/11 08:48:51;;;;;;;4.63;1.77;;;27.30;82.10;;;;;;4265534;27;20043;-83
2022/08/11 08:53:27;;;;;;;3.45;1.50;;;27.50;81.70;;;;;;4265272;27;20111;-82
2022/08/11 08:55:30;;;;;;;2.88;1.77;;;27.80;80.80;;;;;;4265664;27;20039;-82
2022/08/11 08:57:36;;;;;;;2.78;1.85;;;27.90;80.70;;;;;;4247010;27;20087;-83
2022/08/11 08:59:40;;;;;;;2.80;1.50;;;28.10;79.40;;;;;;4261485;27;20376;-84
2022/08/11 09:01:49;;;;;;;3.30;1.50;;;28.20;78.90;;;;;;4248142;27;20043;-84
2022/08/11 09:03:51;;;;;;;2.30;1.65;;;28.40;77.70;;;;;;4248420;27;20043;-84
2022/08/11 09:05:54;;;;;;;6.30;1.63;;;28.70;77.40;;;;;;4247908;27;20402;-83
2022/08/11 09:07:57;;;;;;;3.30;1.40;;;28.80;76.40;;;;;;4214822;28;20044;-84
2022/08/11 09:09:59;;;;;;;2.17;1.25;;;29.00;76.10;;;;;;4248164;27;20047;-81
2022/08/11 09:12:04;;;;;;;3.45;1.80;;;29.10;75.10;;;;;;4229582;28;20052;-82
2022/08/11 09:14:05;;;;;;;3.80;1.58;;;29.30;74.60;;;;;;4248559;27;20076;-83
2022/08/11 09:16:09;;;;;;;3.65;1.60;;;29.50;74.10;;;;;;4248155;27;20082;-83
2022/08/11 09:18:11;;;;;;;6.80;1.27;;;29.70;72.90;;;;;;4246709;27;20384;-83
2022/08/11 09:20:25;;;;;;;1.83;1.10;;;29.80;72.80;;;;;;4247381;27;20047;-83
2022/08/11 09:27:15;;;;;;;1.73;0.98;;;30.30;69.40;;;;;;4217264;27;20524;-83
2022/08/11 09:29:16;;;;;;;1.30;1.10;;;30.30;67.70;;;;;;4245755;27;20043;-83
2022/08/11 09:31:21;;;;;;;1.92;0.98;;;30.50;66.90;;;;;;4227600;28;20079;-83
2022/08/11 09:33:24;;;;;;;6.43;1.73;;;30.70;65.90;;;;;;4246096;27;20039;-83
2022/08/11 09:35:27;;;;;;;3.10;1.05;;;30.90;65.70;;;;;;4264378;27;20577;-83
2022/08/11 09:42:16;;;;;;;2.47;0.90;;;31.00;62.80;;;;;;4247118;27;20055;-83
2022/08/11 09:46:42;;;;;;;4.93;1.13;;;31.20;62.60;;;;;;4230065;28;20118;-83
2022/08/11 09:48:46;;;;;;;4.05;1.00;;;31.40;62.00;;;;;;4229830;28;20131;-83
2022/08/11 09:50:51;;;;;;;2.70;0.90;;;31.40;61.30;;;;;;4230418;28;20035;-83
2022/08/11 09:53:05;;;;;;;3.33;1.40;;;31.50;59.70;;;;;;4230080;28;20047;-83
2022/08/11 09:55:09;;;;;;;1.90;1.00;;;31.90;57.80;;;;;;4200623;28;20087;-84
2022/08/11 09:59:40;;;;;;;2.17;0.98;;;32.30;56.20;;;;;;4246868;28;20122;-83
2022/08/11 10:01:49;;;;;;;4.38;1.33;;;32.50;55.50;;;;;;4246327;28;20126;-83
2022/08/11 10:04:33;;;;;;;1.55;0.90;;;32.50;55.70;;;;;;4247445;27;20428;-84
2022/08/11 10:09:05;;;;;;;2.10;0.88;;;32.60;54.70;;;;;;4246488;28;20046;-83
2022/08/11 10:11:17;;;;;;;1.13;0.85;;;32.60;53.40;;;;;;4247659;27;20047;-84
2022/08/11 10:13:26;;;;;;;0.90;0.70;;;32.70;51.70;;;;;;4241946;28;20044;-83
2022/08/11 10:15:38;;;;;;;2.17;0.75;;;33.00;52.00;;;;;;4245947;28;20035;-82
2022/08/11 10:20:12;;;;;;;2.28;0.80;;;32.90;49.70;;;;;;4247130;28;20126;-83
2022/08/11 10:27:03;;;;;;;4.32;0.95;;;33.10;49.50;;;;;;4228852;28;20051;-83
2022/08/11 10:34:04;;;;;;;1.05;0.70;;;33.80;50.60;;;;;;4234758;27;20043;-84
2022/08/11 10:36:14;;;;;;;;;;;34.20;49.20;;;;;;4250873;27;20043;-84
2022/08/11 10:38:19;;;;;;;3.80;0.90;;;34.30;47.30;;;;;;4237767;27;20545;-84
2022/08/11 10:40:24;;;;;;;3.58;0.85;;;34.40;49.50;;;;;;4233599;28;20047;-84
2022/08/11 10:44:54;;;;;;;2.53;0.80;;;34.90;48.10;;;;;;4240119;27;20403;-83
2022/08/11 10:49:22;;;;;;;5.38;0.70;;;35.10;47.00;;;;;;4257431;27;20422;-84
2022/08/11 10:58:50;;;;;;;2.13;0.80;;;34.50;45.40;;;;;;4249307;27;20255;-83
2022/08/11 11:00:57;;;;;;;2.13;1.00;;;34.80;45.10;;;;;;4248705;27;20135;-83
2022/08/11 11:03:06;;;;;;;2.60;0.85;;;35.10;46.10;;;;;;4267545;27;20046;-83
2022/08/11 11:05:31;;;;;;;0.88;0.80;;;35.30;45.60;;;;;;4247822;27;20126;-83
2022/08/11 11:07:51;;;;;;;2.58;0.80;;;35.40;44.10;;;;;;4267624;27;20594;-83
2022/08/11 11:10:01;;;;;;;3.63;0.93;;;35.50;42.90;;;;;;4233961;27;20058;-83
2022/08/11 11:19:18;;;;;;;4.00;1.00;;;36.30;44.50;;;;;;4248729;27;20051;-84
2022/08/11 11:21:25;;;;;;;1.25;0.80;;;36.50;43.90;;;;;;4267611;27;20181;-84
2022/08/11 11:23:49;;;;;;;1.97;0.90;;;36.50;43.20;;;;;;4249865;27;20058;-84
2022/08/11 11:26:23;;;;;;;3.15;1.20;;;36.50;44.10;;;;;;4249280;27;20326;-83
2022/08/11 11:28:53;;;;;;;2.35;0.90;;;36.40;42.20;;;;;;4249393;27;20069;-84
2022/08/11 11:31:33;;;;;;;0.70;0.60;;;36.70;42.30;;;;;;4268247;27;20447;-84
2022/08/11 11:34:05;;;;;;;4.78;0.90;;;36.60;42.50;;;;;;4250983;27;20047;-84
2022/08/11 11:36:38;;;;;;;1.45;0.85;;;36.50;42.30;;;;;;4249287;27;20079;-84
2022/08/11 11:38:45;;;;;;;1.90;0.90;;;36.60;42.40;;;;;;4249762;27;20047;-84
2022/08/11 11:41:23;;;;;;;1.15;0.98;;;36.70;42.80;;;;;;4249608;27;20074;-84
2022/08/11 11:43:12;;;;;;;1.85;0.85;;;36.70;42.60;;;;;;4249270;27;20137;-83
2022/08/11 11:45:21;;;;;;;2.40;0.68;;;36.80;42.10;;;;;;4249496;27;20070;-83
2022/08/11 11:47:27;;;;;;;2.00;0.82;;;36.90;41.60;;;;;;4251726;27;20126;-84
2022/08/11 11:49:39;;;;;;;0.95;0.60;;;37.20;41.70;;;;;;4251970;27;20049;-84
2022/08/11 11:51:53;;;;;;;2.40;0.77;;;37.30;40.80;;;;;;4252316;27;20118;-84
2022/08/11 11:54:02;;;;;;;1.67;0.90;;;37.50;40.50;;;;;;4241501;27;20399;-83
2022/08/11 11:56:04;;;;;;;3.13;0.82;;;37.50;40.60;;;;;;4244125;27;20043;-84
2022/08/11 12:02:58;;;;;;;3.45;0.70;;;38.00;40.40;;;;;;4253432;27;20187;-84
2022/08/11 12:05:03;;;;;;;2.65;1.00;;;38.20;40.80;;;;;;4253592;27;20093;-84
2022/08/11 12:09:33;;;;;;;2.55;0.88;;;38.20;39.60;;;;;;4255077;27;20054;-84
2022/08/11 12:14:06;;;;;;;2.65;0.80;;;38.20;39.10;;;;;;4253318;27;20491;-84
2022/08/11 12:16:17;;;;;;;2.50;1.02;;;38.40;38.50;;;;;;4256096;27;20044;-84
2022/08/11 12:18:23;;;;;;;1.17;0.82;;;38.60;38.60;;;;;;4255394;27;20043;-83
2022/08/11 12:20:27;;;;;;;1.92;0.93;;;38.70;39.10;;;;;;4234524;28;20047;-84
2022/08/11 12:27:25;;;;;;;2.30;0.80;;;38.40;39.10;;;;;;4238957;28;20547;-84
2022/08/11 12:29:28;;;;;;;1.00;0.70;;;38.70;39.00;;;;;;4223885;28;20151;-84
2022/08/11 12:31:33;;;;;;;2.45;0.60;;;38.90;37.80;;;;;;4223967;28;20040;-83
2022/08/11 12:33:42;;;;;;;2.83;0.85;;;38.90;37.70;;;;;;4242156;28;20050;-83
2022/08/11 12:35:52;;;;;;;2.20;0.85;;;39.00;38.10;;;;;;4241058;28;20044;-84
2022/08/11 12:38:06;;;;;;;3.20;0.90;;;39.20;38.00;;;;;;4242386;28;20048;-84
2022/08/11 12:45:27;;;;;;;2.25;0.90;;;39.20;37.30;;;;;;4250490;27;20090;-84
2022/08/11 12:51:55;;;;;;;2.38;0.93;;;39.30;37.30;;;;;;4240957;28;20048;-84
2022/08/11 12:51:57;;;;;;;1.38;0.90;;;39.30;37.40;;;;;;4242900;28;20540;-84
2022/08/11 12:52:52;;;;;;;2.10;0.80;;;39.10;37.40;;;;;;4258625;27;20070;-83
2022/08/11 12:55:05;;;;;;;1.00;0.70;;;39.20;37.90;;;;;;4260964;27;20039;-84
2022/08/11 13:04:58;;;;;;;0.80;0.70;;;38.90;38.50;;;;;;4259451;27;20047;-84
2022/08/11 13:07:01;;;;;;;2.70;1.30;;;39.10;38.60;;;;;;4225230;28;20047;-84
2022/08/11 13:09:10;;;;;;;1.15;0.75;;;39.30;37.80;;;;;;4242234;27;20043;-83
2022/08/11 13:13:48;;;;;;;3.65;0.80;;;39.30;37.60;;;;;;4270592;27;20502;-85
2022/08/11 13:16:08;;;;;;;3.55;0.90;;;39.40;37.50;;;;;;4245077;27;20078;-85
2022/08/11 13:18:22;;;;;;;2.58;0.80;;;39.50;36.60;;;;;;4260984;27;20077;-85
2022/08/11 13:20:36;;;;;;;3.10;0.80;;;39.20;36.00;;;;;;4276668;27;20049;-85
2022/08/11 13:22:46;;;;;;;3.90;1.15;;;39.20;35.90;;;;;;4264022;27;20039;-85
2022/08/11 13:24:54;;;;;;;1.98;0.60;;;39.20;36.60;;;;;;4259659;27;20047;-84
2022/08/11 13:27:05;;;;;;;2.22;0.70;;;39.20;36.30;;;;;;4225892;28;20082;-84
2022/08/11 13:29:18;;;;;;;0.63;0.60;;;39.40;36.40;;;;;;4261174;27;20039;-84
2022/08/11 13:31:23;;;;;;;2.50;0.60;;;39.60;35.40;;;;;;4243404;28;20043;-84
2022/08/11 13:33:28;;;;;;;3.17;0.82;;;39.50;35.20;;;;;;4243165;28;20556;-84
2022/08/11 13:35:36;;;;;;;2.22;0.70;;;39.60;34.80;;;;;;4243677;28;20107;-84
2022/08/11 13:37:50;;;;;;;2.65;0.60;;;39.80;34.80;;;;;;4262192;27;20103;-84
2022/08/11 13:40:03;;;;;;;4.63;0.80;;;40.00;34.20;;;;;;4245090;28;20035;-84
2022/08/11 13:42:09;;;;;;;4.70;1.10;;;39.80;34.30;;;;;;4245461;28;20044;-84
2022/08/11 13:44:16;;;;;;;2.08;1.30;;;39.80;35.00;;;;;;4244738;28;20043;-84
2022/08/11 13:46:26;;;;;;;2.78;0.90;;;40.00;34.80;;;;;;4245832;28;20040;-84
2022/08/11 13:48:29;;;;;;;2.75;0.85;;;39.90;35.00;;;;;;4250188;27;20086;-84
2022/08/11 13:53:06;;;;;;;3.45;0.90;;;39.60;35.10;;;;;;4261330;28;20051;-84
2022/08/11 13:55:23;;;;;;;2.53;0.80;;;39.60;34.90;;;;;;4260081;28;20481;-84
2022/08/11 13:57:32;;;;;;;5.72;0.88;;;39.30;35.30;;;;;;4260396;27;20047;-84
2022/08/11 13:59:40;;;;;;;1.73;0.73;;;39.20;35.30;;;;;;4259995;27;20039;-84
2022/08/11 14:01:55;;;;;;;2.33;0.80;;;39.10;35.20;;;;;;4260308;27;20050;-83
2022/08/11 14:04:15;;;;;;;0.80;0.70;;;39.20;34.60;;;;;;4260654;27;20043;-84
2022/08/11 14:06:20;;;;;;;1.73;0.60;;;39.20;35.30;;;;;;4245166;28;20080;-83
2022/08/11 14:08:31;;;;;;;1.88;0.70;;;39.10;35.00;;;;;;4261432;27;20051;-84
2022/08/11 14:10:38;;;;;;;1.33;0.60;;;39.30;35.20;;;;;;4264007;27;20051;-84
2022/08/11 14:15:34;;;;;;;4.15;0.90;;;39.20;34.30;;;;;;4261316;27;20043;-84
2022/08/11 14:17:42;;;;;;;1.38;1.17;;;39.20;35.90;;;;;;4262004;27;20103;-84
2022/08/11 14:19:51;;;;;;;1.60;0.75;;;39.10;36.40;;;;;;4260793;27;20043;-84
2022/08/11 14:22:06;;;;;;;3.35;1.08;;;39.20;36.70;;;;;;4261503;27;20039;-84
2022/08/11 14:24:11;;;;;;;3.55;1.00;;;39.50;36.90;;;;;;4244743;28;20051;-84
2022/08/11 14:26:26;;;;;;;2.47;0.77;;;39.50;36.80;;;;;;4263293;27;20122;-83
2022/08/11 14:28:35;;;;;;;1.92;0.80;;;39.50;37.30;;;;;;4263249;27;20039;-83
2022/08/11 14:30:55;;;;;;;2.22;0.80;;;39.60;36.90;;;;;;4245310;28;20572;-85
2022/08/11 14:33:02;;;;;;;2.13;0.80;;;39.70;37.20;;;;;;4262976;27;20043;-84
2022/08/11 14:35:03;;;;;;;2.25;0.98;;;39.60;36.80;;;;;;4244782;28;20082;-84
2022/08/11 14:37:10;;;;;;;4.28;0.95;;;39.60;37.20;;;;;;4244916;28;20116;-84
2022/08/11 14:39:25;;;;;;;4.13;1.27;;;39.70;36.80;;;;;;4251914;27;20071;-84
2022/08/11 14:48:46;;;;;;;1.88;0.80;;;39.60;37.20;;;;;;4262354;27;20304;-84
2022/08/11 14:50:51;;;;;;;2.60;0.88;;;39.70;37.30;;;;;;4262343;27;20282;-84
2022/08/11 14:53:09;;;;;;;1.17;0.90;;;39.50;37.10;;;;;;4261505;27;20457;-84
2022/08/11 14:57:41;;;;;;;6.35;1.10;;;39.00;36.60;;;;;;4243501;27;20107;-84
2022/08/11 14:59:50;;;;;;;4.97;0.93;;;38.40;37.20;;;;;;4238963;28;20092;-85
2022/08/11 15:04:15;;;;;;;2.88;0.70;;;38.40;37.90;;;;;;4240161;28;20040;-84
2022/08/11 15:06:23;;;;;;;3.60;0.95;;;38.60;37.60;;;;;;4222048;28;20557;-84
2022/08/11 15:10:54;;;;;;;4.85;0.80;;;38.20;37.30;;;;;;4237604;28;20436;-84
2022/08/11 15:12:58;;;;;;;1.90;0.90;;;38.20;37.90;;;;;;4238613;28;20050;-84
2022/08/11 15:17:28;;;;;;;1.17;0.70;;;38.20;37.40;;;;;;4237578;28;20067;-84
2022/08/11 15:24:17;;;;;;;2.38;0.82;;;38.20;37.50;;;;;;4238030;28;20048;-84
2022/08/11 15:24:25;;;;;;;2.55;0.90;;;38.20;37.50;;;;;;4238401;28;20488;-83
2022/08/11 15:38:17;;;;;;;3.00;0.98;;;37.70;38.10;;;;;;4253261;27;20083;-84
2022/08/11 15:45:49;;;;;;;2.85;0.90;;;37.70;38.20;;;;;;4266566;27;20082;-84
2022/08/11 15:48:02;;;;;;;2.85;1.00;;;37.50;38.30;;;;;;4250991;27;20047;-84
2022/08/11 15:50:12;;;;;;;3.40;0.70;;;37.30;38.30;;;;;;4269573;27;20042;-84
2022/08/11 15:52:24;;;;;;;2.33;0.90;;;37.30;38.80;;;;;;4251742;27;20107;-84
2022/08/11 15:54:33;;;;;;;3.03;1.00;;;37.10;38.80;;;;;;4253465;27;20576;-83
2022/08/11 15:56:46;;;;;;;3.67;0.80;;;37.00;38.70;;;;;;4271762;27;20035;-83